Latest Weather Observations for Port Fairy

IDV60801

Issued at 10:03 am EDT Wednesday 22 February 2017 (issued every 30 minutes, with the page automatically refreshed every 10 minutes)

About weather observations | Map of weather stations | Latest weather observations for VIC | Other Formats
Station Details ID: 090175 Name: PORT FAIRY AWS Lat: -38.39 Lon: 142.23 Height: 10.0 m
Data from the previous 72 hours. | See also: Recent months at Port Fairy
Date/Time
EDT
Temp
°C
App
Temp
°C
Dew
Point
°C
Rel
Hum
%
Delta-T
°C
Wind Press
QNH
hPa
Press
MSL
hPa
Rain since
9am
mm
Dir  Spd
km/h
Gust
km/h
Spd
kts
Gust
kts
22/10:00am 24.5 19.1 6.3 31 9.4 N 24 35 13 19 1010.8 1010.8 0.0
22/09:30am 22.1 17.5 6.7 37 7.9 NNE 20 32 11 17 1011.0 1011.0 0.0
22/09:00am 20.3 16.4 7.0 42 6.8 NNE 17 33 9 18 1011.2 1011.2 0.0
22/08:30am 17.7 14.2 7.2 50 5.3 NNE 15 22 8 12 1011.3 1011.3 -
22/08:00am 15.1 11.4 6.4 56 4.2 NNE 15 24 8 13 1011.4 1011.4 -
22/07:30am 14.1 10.4 6.5 60 3.7 NNE 15 20 8 11 1011.7 1011.7 -
22/07:00am 13.9 10.3 6.7 62 3.5 NNE 15 20 8 11 1011.6 1011.6 -
22/06:30am 13.5 10.2 6.6 63 3.3 NNE 13 20 7 11 1011.8 1011.8 -
22/06:00am 13.2 9.7 7.0 66 3.0 NNE 15 20 8 11 1011.8 1011.8 -
22/05:30am 12.9 10.3 7.8 71 2.5 NNE 11 17 6 9 1011.9 1011.9 -
22/05:00am 13.5 10.7 8.6 72 2.5 NNE 13 20 7 11 1012.0 1012.0 -
22/04:30am 13.6 10.9 8.9 73 2.4 NNE 13 19 7 10 1012.2 1012.2 -
22/04:00am 13.8 11.7 9.6 76 2.2 NNE 11 19 6 10 1012.5 1012.5 -
22/03:30am 13.9 11.6 10.3 79 1.9 NE 13 19 7 10 1013.0 1013.0 -
22/03:00am 14.1 11.5 10.7 80 1.8 NNE 15 20 8 11 1013.4 1013.4 0.0
22/02:30am 14.2 11.7 11.0 81 1.7 NNE 15 20 8 11 1013.9 1013.9 -
22/02:00am 14.7 12.6 11.3 80 1.8 NE 13 22 7 12 1014.3 1014.3 -
22/01:30am 14.8 12.7 11.2 79 1.9 NNE 13 20 7 11 1014.8 1014.8 -
22/01:00am 15.2 13.2 11.6 79 1.9 NE 13 22 7 12 1015.1 1015.1 -
22/12:30am 15.7 13.3 11.5 76 2.3 NE 15 22 8 12 1015.3 1015.3 -
22/12:00am 16.2 13.6 12.0 76 2.3 NE 17 26 9 14 1015.6 1015.6 -
 
Date/Time
EDT
Temp
°C
App
Temp
°C
Dew
Point
°C
Rel
Hum
%
Delta-T
°C
Wind Press
QNH
hPa
Press
MSL
hPa
Rain since
9am
mm
Dir  Spd
km/h
Gust
km/h
Spd
kts
Gust
kts
21/11:30pm 16.2 13.7 12.4 78 2.1 NE 17 24 9 13 1015.9 1015.9 -
21/11:00pm 16.3 15.1 12.8 80 1.9 ENE 11 19 6 10 1016.2 1016.2 -
21/10:30pm 16.5 15.0 13.0 80 1.9 ENE 13 20 7 11 1016.6 1016.6 -
21/10:00pm 16.6 14.4 13.3 81 1.8 E 17 26 9 14 1016.7 1016.7 -
21/09:30pm 16.7 14.0 13.4 81 1.9 ESE 20 30 11 16 1016.6 1016.6 -
21/09:00pm 16.7 13.5 13.2 80 2.0 ESE 22 33 12 18 1016.5 1016.5 0.0
21/08:30pm 16.7 13.5 13.0 79 2.1 ESE 22 32 12 17 1016.7 1016.7 -
21/08:00pm 16.9 13.6 12.8 77 2.3 ESE 22 33 12 18 1016.5 1016.5 -
21/07:30pm 17.0 13.5 12.3 74 2.6 ESE 22 30 12 16 1016.6 1016.6 -
21/07:00pm 17.9 14.5 12.4 70 3.0 ESE 22 32 12 17 1016.6 1016.6 -
21/06:30pm 18.3 14.9 12.5 69 3.2 SE 22 32 12 17 1016.8 1016.8 -
21/06:00pm 18.8 15.7 12.3 66 3.6 SE 20 30 11 16 1017.2 1017.2 -
21/05:30pm 19.1 16.0 12.1 64 3.9 SE 20 28 11 15 1017.4 1017.4 -
21/05:00pm 19.4 16.2 11.9 62 4.1 SE 20 28 11 15 1017.5 1017.5 -
21/04:30pm 19.3 16.0 11.6 61 4.2 SE 20 26 11 14 1017.9 1017.9 -
21/04:00pm 19.4 16.1 10.9 58 4.6 SE 19 24 10 13 1018.4 1018.4 -
21/03:30pm 19.3 16.1 11.1 59 4.5 SSE 19 24 10 13 1018.7 1018.7 -
21/03:00pm 19.4 16.4 10.7 57 4.7 SSE 17 20 9 11 1019.1 1019.1 0.0
21/02:30pm 18.8 15.8 10.6 59 4.4 SSE 17 22 9 12 1019.5 1019.5 -
21/02:00pm 19.0 16.3 10.3 57 4.7 SSE 15 20 8 11 1019.8 1019.8 -
21/01:30pm 18.7 15.9 10.0 57 4.6 SSE 15 20 8 11 1020.2 1020.2 -
21/01:00pm 18.7 15.9 10.0 57 4.6 SSE 15 19 8 10 1020.7 1020.7 -
21/12:30pm 18.5 15.6 9.6 56 4.7 SE 15 19 8 10 1020.8 1020.8 0.0
21/12:00pm 18.4 16.0 10.0 58 4.5 SE 13 19 7 10 1020.9 1020.9 0.0
21/11:30am 18.4 16.7 9.7 57 4.6 SE 9 13 5 7 1021.3 1021.3 0.0
21/11:00am 17.9 16.5 9.0 56 4.6 ENE 6 11 3 6 1021.4 1021.4 0.0
21/10:30am 17.1 15.9 9.5 61 4.0 ENE 6 9 3 5 1021.4 1021.4 0.0
21/10:00am 16.4 15.5 10.5 68 3.1 N 6 7 3 4 1021.3 1021.3 0.0
21/09:30am 14.6 13.5 10.6 77 2.1 N 7 11 4 6 1021.3 1021.3 0.0
21/09:00am 12.5 11.4 9.9 84 1.3 NNW 6 9 3 5 1021.2 1021.2 0.0
21/08:30am 9.9 8.4 8.5 91 0.7 NNW 6 9 3 5 1021.3 1021.3 0.0
21/08:00am 8.3 6.5 7.2 93 0.5 NNW 6 9 3 5 1020.9 1020.9 0.0
21/07:30am 7.3 5.3 6.2 93 0.5 NNW 6 7 3 4 1020.4 1020.4 0.0
21/07:00am 7.3 5.3 6.2 93 0.5 NNW 6 7 3 4 1020.1 1020.1 0.0
21/06:30am 7.5 5.5 6.4 93 0.5 NNW 6 9 3 5 1019.9 1019.9 0.0
21/06:00am 7.8 5.9 6.6 92 0.5 NNW 6 9 3 5 1019.5 1019.5 0.0
21/05:30am 7.6 5.6 6.2 91 0.6 NNW 6 7 3 4 1019.3 1019.3 0.0
21/05:00am 8.1 6.2 6.6 90 0.7 NNW 6 7 3 4 1018.9 1018.9 0.0
21/04:30am 8.7 6.9 7.0 89 0.8 NNW 6 7 3 4 1018.9 1018.9 0.0
21/04:00am 9.4 7.6 7.3 87 1.0 NNW 6 7 3 4 1019.0 1019.0 0.0
21/03:30am 9.8 8.4 7.2 84 1.2 NNW 4 7 2 4 1018.9 1018.9 0.0
21/03:00am 11.0 10.1 7.7 80 1.6 W 2 6 1 3 1019.0 1019.0 0.0
21/02:30am 11.5 10.0 6.6 72 2.3 W 4 9 2 5 1018.9 1018.9 0.0
21/02:00am 14.3 12.4 9.1 71 2.6 SSW 9 13 5 7 1019.1 1019.1 0.0
21/01:30am 14.3 12.3 8.7 69 2.8 SSW 9 13 5 7 1019.2 1019.2 0.0
21/01:00am 14.4 12.0 8.8 69 2.8 SSW 11 19 6 10 1019.4 1019.4 0.0
21/12:30am 14.6 11.9 9.0 69 2.9 SSW 13 19 7 10 1019.5 1019.5 0.0
21/12:00am 14.7 12.1 9.3 70 2.8 SSW 13 19 7 10 1019.4 1019.4 0.0
 
Date/Time
EDT
Temp
°C
App
Temp
°C
Dew
Point
°C
Rel
Hum
%
Delta-T
°C
Wind Press
QNH
hPa
Press
MSL
hPa
Rain since
9am
mm
Dir  Spd
km/h
Gust
km/h
Spd
kts
Gust
kts
20/11:30pm 14.8 11.8 9.4 70 2.8 SSW 15 19 8 10 1019.5 1019.5 0.0
20/11:00pm 15.1 12.7 9.9 71 2.7 SSW 13 19 7 10 1019.2 1019.2 0.0
20/10:30pm 14.8 12.2 9.2 69 2.9 SSW 13 20 7 11 1019.2 1019.2 0.0
20/10:00pm 14.9 11.9 9.1 68 3.0 SSW 15 20 8 11 1019.1 1019.1 0.0
20/09:30pm 15.0 12.0 9.1 68 3.0 SSW 15 20 8 11 1019.1 1019.1 0.0
20/09:00pm 15.0 11.6 9.1 68 3.0 SW 17 22 9 12 1018.8 1018.8 0.0
20/08:30pm 15.2 11.8 9.3 68 3.0 SSW 17 24 9 13 1018.4 1018.4 0.0
20/08:00pm 15.4 11.7 9.3 67 3.1 SW 19 24 10 13 1018.1 1018.1 0.0
20/07:30pm 16.1 12.5 10.0 67 3.2 SW 19 26 10 14 1017.6 1017.6 0.0
20/07:00pm 16.0 12.4 9.7 66 3.3 SSW 19 28 10 15 1017.2 1017.2 0.0
20/06:30pm 16.2 12.8 10.5 69 3.0 SSW 19 26 10 14 1017.2 1017.2 0.0
20/06:00pm 16.9 12.7 9.8 63 3.7 SW 22 28 12 15 1017.0 1017.0 0.0
20/05:30pm 17.6 13.1 10.0 61 4.0 SW 24 32 13 17 1016.7 1016.7 0.0
20/05:00pm 17.2 12.1 9.1 59 4.2 SW 26 32 14 17 1016.6 1016.6 0.0
20/04:30pm 18.0 13.6 10.4 61 4.1 SW 24 35 13 19 1016.5 1016.5 0.0
20/04:00pm 18.0 13.3 10.6 62 4.0 SW 26 33 14 18 1016.4 1016.4 0.0
20/03:30pm 18.0 13.9 11.3 65 3.6 SW 24 32 13 17 1016.3 1016.3 0.0
20/03:00pm 16.9 12.1 10.3 65 3.5 SW 26 35 14 19 1016.3 1016.3 0.0
20/02:30pm 17.8 12.8 9.4 58 4.4 SW 26 37 14 20 1016.4 1016.4 0.0
20/02:00pm 17.6 12.4 10.2 62 3.9 SW 28 37 15 20 1016.3 1016.3 0.0
20/01:30pm 17.1 12.5 9.8 62 3.8 SW 24 32 13 17 1016.2 1016.2 0.0
20/01:00pm 16.6 12.1 10.0 65 3.5 SW 24 33 13 18 1016.1 1016.1 0.0
20/12:30pm 17.1 12.6 10.2 64 3.7 SW 24 30 13 16 1016.1 1016.1 0.0
20/12:00pm 17.4 12.8 9.8 61 4.0 SW 24 30 13 16 1016.2 1016.2 0.0
20/11:30am 17.1 13.0 10.0 63 3.7 SW 22 32 12 17 1016.1 1016.1 0.0
20/11:00am 16.1 11.8 9.5 65 3.4 SW 22 32 12 17 1016.1 1016.1 0.0
20/10:30am 16.3 11.6 9.3 63 3.6 SW 24 32 13 17 1015.9 1015.9 0.0
20/10:00am 16.4 12.3 10.0 66 3.4 SW 22 30 12 16 1015.5 1015.5 0.0
20/09:30am 15.7 10.5 8.9 64 3.5 SW 26 35 14 19 1015.4 1015.4 0.0
20/09:00am 15.2 10.4 8.7 65 3.3 SSW 24 33 13 18 1015.0 1015.0 2.0
20/08:30am 15.2 9.8 8.0 62 3.6 SSW 26 33 14 18 1014.7 1014.7 -
20/08:00am 15.0 10.2 8.9 67 3.1 SSW 24 35 13 19 1014.2 1014.2 -
20/07:30am 14.8 9.8 9.4 70 2.8 SSW 26 37 14 20 1013.8 1013.8 -
20/07:00am 14.9 9.7 10.1 73 2.5 SSW 28 37 15 20 1013.4 1013.4 -
20/06:30am 14.7 10.1 9.5 71 2.7 SSW 24 37 13 20 1013.1 1013.1 -
20/06:00am 14.6 9.7 10.0 74 2.4 SSW 26 37 14 20 1012.8 1012.8 -
20/05:30am 14.6 8.8 9.6 72 2.6 SSW 30 41 16 22 1012.8 1012.8 -
20/05:00am 14.6 8.5 9.8 73 2.5 SSW 32 41 17 22 1012.6 1012.6 -
20/04:30am 14.8 8.8 10.0 73 2.5 SSW 32 44 17 24 1012.6 1012.6 -
20/04:00am 14.5 8.0 9.1 70 2.8 SSW 33 46 18 25 1012.4 1012.4 -
20/03:30am 14.6 8.4 9.4 71 2.7 SSW 32 43 17 23 1012.3 1012.3 -
20/03:00am 14.2 7.9 9.0 71 2.6 SW 32 44 17 24 1012.3 1012.3 0.2
20/02:30am 14.3 8.1 9.5 73 2.5 SW 32 43 17 23 1012.4 1012.4 -
20/02:00am 14.5 8.3 9.9 74 2.4 SW 33 48 18 26 1012.5 1012.5 -
20/01:30am 14.3 8.8 9.1 71 2.6 SSW 28 41 15 22 1012.6 1012.6 -
20/01:00am 14.1 8.2 9.1 72 2.5 SW 30 41 16 22 1012.7 1012.7 -
20/12:30am 14.6 8.8 9.6 72 2.6 SW 30 41 16 22 1012.6 1012.6 -
20/12:00am 14.5 8.6 9.1 70 2.8 SSW 30 39 16 21 1012.5 1012.5 -
 
Date/Time
EDT
Temp
°C
App
Temp
°C
Dew
Point
°C
Rel
Hum
%
Delta-T
°C
Wind Press
QNH
hPa
Press
MSL
hPa
Rain since
9am
mm
Dir  Spd
km/h
Gust
km/h
Spd
kts
Gust
kts
19/11:30pm 14.4 7.5 8.8 69 2.8 SW 35 46 19 25 1012.6 1012.6 -
19/11:00pm 14.6 8.3 9.6 72 2.6 SW 33 44 18 24 1012.6 1012.6 -
19/10:30pm 14.6 8.7 9.2 70 2.8 SSW 30 41 16 22 1012.6 1012.6 -
19/10:00pm 14.8 8.6 10.0 73 2.5 SW 33 44 18 24 1012.4 1012.4 -
19/09:30pm 14.0 8.2 9.6 75 2.3 SSW 30 43 16 23 1012.1 1012.1 -
19/09:00pm 14.3 8.4 10.3 77 2.1 SSW 32 44 17 24 1011.8 1011.8 0.6
19/08:30pm 13.5 7.2 9.7 78 1.9 SW 33 43 18 23 1011.6 1011.6 -
19/08:10pm 14.4 8.2 10.0 75 2.3 SW 33 54 18 29 1011.4 1011.4 -
19/08:00pm 14.1 7.6 8.9 71 2.6 SW 33 43 18 23 1011.3 1011.3 -
19/07:30pm 14.1 7.8 9.7 75 2.3 SW 33 46 18 25 1010.9 1010.9 -
19/07:00pm 14.1 8.4 9.7 75 2.3 SW 30 44 16 24 1010.7 1010.7 -
19/06:30pm 14.7 7.7 8.4 66 3.2 SW 35 46 19 25 1010.6 1010.6 -
19/06:00pm 14.9 7.0 9.3 69 2.9 SW 41 52 22 28 1010.4 1010.4 -
19/05:30pm 15.3 7.6 8.8 65 3.3 SW 39 54 21 29 1010.1 1010.1 -
19/05:00pm 15.4 9.7 11.0 75 2.3 SW 32 43 17 23 1010.0 1010.0 -
19/04:44pm 14.6 7.8 9.4 71 2.7 SW 35 57 19 31 1010.1 1010.1 -
19/04:30pm 15.2 7.8 8.4 64 3.4 SW 37 48 20 26 1010.0 1010.0 -
19/04:00pm 15.2 8.0 9.1 67 3.1 SW 37 52 20 28 1010.1 1010.1 -
19/03:30pm 14.8 8.3 10.2 74 2.4 WSW 35 46 19 25 1010.3 1010.3 -
19/03:00pm 14.7 7.5 9.3 70 2.8 SW 37 50 20 27 1010.1 1010.1 -
19/02:30pm - - - - - SW 43 56 23 30 - - -
19/02:00pm 12.2 5.3 9.0 81 1.6 WSW 35 54 19 29 1010.3 1010.3 1.2
19/01:30pm 13.0 6.7 9.6 80 1.7 WSW 33 50 18 27 1010.3 1010.3 0.8
19/01:16pm 14.4 7.2 9.0 70 2.7 SW 37 57 20 31 1010.4 1010.4 0.6
19/01:00pm 13.9 7.6 8.9 72 2.5 SW 32 44 17 24 1010.3 1010.3 0.6
19/12:41pm 13.4 7.4 8.5 72 2.4 SW 30 54 16 29 1010.6 1010.6 0.6
19/12:30pm 14.8 9.9 10.0 73 2.5 SW 26 39 14 21 1010.5 1010.5 0.6
19/12:13pm 13.5 6.8 9.6 77 2.0 SW 35 54 19 29 1010.8 1010.8 0.6
19/12:00pm 14.6 6.0 8.1 65 3.3 SW 43 54 23 29 1010.8 1010.8 0.4
19/11:30am 14.9 6.7 8.2 64 3.4 SW 41 52 22 28 1010.7 1010.7 0.4
19/11:00am 15.8 9.1 8.1 60 3.9 SW 33 43 18 23 1010.5 1010.5 0.4
19/10:30am 14.6 8.1 8.1 65 3.2 SW 32 46 17 25 1010.5 1010.5 0.4

Other Formats:

Comma delimited format used in spreadsheet applications
http://www.bom.gov.au/fwo/IDV60801/IDV60801.94830.axf

JavaScript Object Notation format (JSON) in row-major order
http://www.bom.gov.au/fwo/IDV60801/IDV60801.94830.json